createdAt,value
2023-01-28T00:02:03.658Z,16.10
2023-01-28T00:04:31.862Z,20.10
2023-01-28T00:06:59.903Z,17.40
2023-01-28T00:09:27.773Z,19.90
2023-01-28T00:11:55.658Z,19.00
2023-01-28T00:14:23.625Z,20.50
2023-01-28T00:16:51.466Z,20.90
2023-01-28T00:19:19.248Z,18.00
2023-01-28T00:21:47.128Z,20.20
2023-01-28T00:24:15.439Z,21.10
2023-01-28T00:26:43.768Z,21.80
2023-01-28T00:29:29.252Z,19.80
2023-01-28T00:31:59.514Z,22.80
2023-01-28T00:34:31.858Z,18.40
2023-01-28T00:37:21.478Z,16.20
2023-01-28T00:39:55.295Z,16.70
2023-01-28T00:42:46.849Z,18.80
2023-01-28T00:45:21.870Z,16.60
2023-01-28T00:48:12.215Z,15.70
2023-01-28T00:51:00.887Z,16.20
2023-01-28T00:53:55.158Z,18.20
2023-01-28T00:56:45.251Z,18.50
2023-01-28T00:59:14.080Z,14.80
2023-01-28T01:01:46.217Z,14.90
2023-01-28T01:04:36.835Z,15.40
2023-01-28T01:07:04.917Z,18.90
2023-01-28T01:09:36.320Z,11.60
2023-01-28T01:12:09.007Z,13.30
2023-01-28T01:14:56.835Z,13.80
2023-01-28T01:17:25.575Z,12.40
2023-01-28T01:19:55.717Z,14.50
2023-01-28T01:22:25.491Z,13.80
2023-01-28T01:25:03.959Z,12.20
2023-01-28T01:27:35.969Z,12.70
2023-01-28T01:30:04.410Z,13.00
2023-01-28T01:32:34.958Z,12.70
2023-01-28T01:35:10.369Z,13.40
2023-01-28T01:37:44.975Z,15.00
2023-01-28T01:40:13.647Z,13.70
2023-01-28T01:42:42.026Z,14.80
2023-01-28T01:45:21.189Z,15.00
2023-01-28T01:48:10.960Z,16.50
2023-01-28T01:50:47.515Z,17.70
2023-01-28T01:53:32.671Z,18.90
2023-01-28T01:56:04.338Z,18.50
2023-01-28T01:58:39.553Z,23.60
2023-01-28T02:01:14.123Z,21.80
2023-01-28T02:04:03.758Z,19.20
2023-01-28T02:06:40.252Z,16.40
2023-01-28T02:09:26.498Z,9.50
2023-01-28T02:12:00.873Z,9.80
2023-01-28T02:14:33.288Z,7.00
2023-01-28T02:17:06.493Z,7.50
2023-01-28T02:19:45.871Z,6.20
2023-01-28T02:22:46.189Z,6.10
2023-01-28T02:25:45.720Z,5.90
2023-01-28T02:28:32.707Z,6.50
2023-01-28T02:31:20.782Z,5.80
2023-01-28T02:34:10.144Z,8.20
2023-01-28T02:36:49.527Z,5.90
2023-01-28T02:39:29.277Z,8.80
2023-01-28T02:42:07.274Z,6.50
2023-01-28T02:44:35.841Z,7.00
2023-01-28T02:47:26.969Z,7.20
2023-01-28T02:50:00.169Z,6.10
2023-01-28T02:53:17.232Z,7.80
2023-01-28T02:55:55.648Z,7.60
2023-01-28T02:58:54.330Z,6.30
2023-01-28T03:01:38.401Z,7.00
2023-01-28T03:04:45.605Z,6.50
2023-01-28T03:07:18.309Z,8.40
2023-01-28T03:09:58.991Z,8.40
2023-01-28T03:13:08.647Z,6.90
2023-01-28T03:16:08.930Z,8.60
2023-01-28T03:18:59.646Z,7.50
2023-01-28T03:21:51.094Z,7.00
2023-01-28T03:24:49.244Z,8.30
2023-01-28T03:28:37.428Z,7.10
2023-01-28T03:32:02.391Z,8.10
2023-01-28T03:35:44.754Z,6.80
2023-01-28T03:39:13.360Z,6.90
2023-01-28T03:43:13.424Z,8.50
2023-01-28T03:46:51.423Z,7.40
2023-01-28T03:50:46.400Z,7.80
2023-01-28T03:54:33.412Z,8.80
2023-01-28T03:58:08.762Z,7.30
2023-01-28T04:00:58.360Z,9.60
2023-01-28T04:03:32.596Z,9.70
2023-01-28T04:06:16.722Z,10.80
2023-01-28T04:09:16.154Z,13.20
2023-01-28T04:11:59.998Z,12.10
2023-01-28T04:14:43.032Z,8.50
2023-01-28T04:17:18.552Z,9.40
2023-01-28T04:20:09.416Z,9.40
2023-01-28T04:22:41.723Z,10.10
2023-01-28T04:25:37.748Z,10.80
2023-01-28T04:28:31.457Z,11.90
2023-01-28T04:31:05.572Z,15.00
2023-01-28T04:33:46.495Z,12.90
2023-01-28T04:36:28.824Z,9.50
2023-01-28T04:39:16.540Z,9.90
2023-01-28T04:42:01.712Z,8.90
2023-01-28T04:44:46.828Z,10.30
2023-01-28T04:47:28.368Z,12.90
2023-01-28T04:50:06.483Z,15.30
2023-01-28T04:52:51.230Z,13.70
2023-01-28T04:55:37.748Z,15.50
2023-01-28T04:58:07.270Z,14.90
2023-01-28T05:00:57.679Z,18.60
2023-01-28T05:03:27.550Z,18.90
2023-01-28T05:05:56.457Z,16.50
2023-01-28T05:08:46.325Z,17.30
2023-01-28T05:11:17.207Z,13.00
2023-01-28T05:13:46.720Z,10.50
2023-01-28T05:16:17.125Z,11.60
2023-01-28T05:18:48.241Z,8.70
2023-01-28T05:21:20.802Z,9.00
2023-01-28T05:23:57.096Z,6.90
2023-01-28T05:26:51.361Z,9.00
2023-01-28T05:30:07.508Z,7.10
2023-01-28T05:33:46.731Z,5.40
2023-01-28T05:37:02.414Z,6.50
2023-01-28T05:39:34.540Z,8.00
2023-01-28T05:42:09.359Z,12.30
2023-01-28T05:44:42.280Z,12.00
2023-01-28T05:47:19.624Z,14.40
2023-01-28T05:52:37.854Z,13.60
2023-01-28T05:55:12.270Z,8.60
2023-01-28T05:57:40.436Z,8.50
2023-01-28T06:00:13.669Z,7.90
2023-01-28T06:02:51.654Z,10.00
2023-01-28T06:05:27.644Z,11.30
2023-01-28T06:08:00.094Z,12.60
2023-01-28T06:10:36.049Z,11.00
2023-01-28T06:13:04.454Z,12.90
2023-01-28T06:15:52.451Z,7.60
2023-01-28T06:18:36.998Z,8.10
2023-01-28T06:21:05.128Z,8.80
2023-01-28T06:23:33.743Z,9.90
2023-01-28T06:26:05.176Z,8.80
2023-01-28T06:28:34.485Z,9.50
2023-01-28T06:31:02.655Z,13.50
2023-01-28T06:33:34.262Z,13.30
2023-01-28T06:36:08.911Z,13.00
2023-01-28T06:38:36.945Z,12.50
2023-01-28T06:41:06.214Z,14.90
2023-01-28T06:43:36.850Z,12.70
2023-01-28T06:46:09.669Z,13.10
2023-01-28T06:48:41.528Z,13.20
2023-01-28T06:51:11.860Z,13.80
2023-01-28T06:53:40.254Z,12.80
2023-01-28T06:56:10.286Z,10.50
2023-01-28T06:58:47.584Z,11.10
2023-01-28T07:01:23.290Z,11.40
2023-01-28T07:03:51.419Z,9.30
2023-01-28T07:06:20.021Z,9.00
2023-01-28T07:09:02.208Z,14.90
2023-01-28T07:11:30.998Z,16.20
2023-01-28T07:14:11.971Z,15.10
2023-01-28T07:16:53.908Z,15.60
2023-01-28T07:19:25.194Z,15.30
2023-01-28T07:21:58.000Z,17.30
2023-01-28T07:24:26.425Z,16.80
2023-01-28T07:26:54.849Z,14.20
2023-01-28T07:29:23.125Z,15.30
2023-01-28T07:31:52.445Z,16.80
2023-01-28T07:34:22.650Z,18.80
2023-01-28T07:36:50.862Z,18.20
2023-01-28T07:39:23.745Z,22.90
2023-01-28T07:41:54.624Z,20.10
2023-01-28T07:44:43.382Z,15.90
2023-01-28T07:47:14.604Z,17.90
2023-01-28T07:49:46.716Z,15.10
2023-01-28T07:52:27.586Z,12.80
2023-01-28T07:55:00.196Z,15.50
2023-01-28T07:57:30.701Z,13.80
2023-01-28T08:00:01.991Z,16.40
2023-01-28T08:03:01.169Z,14.80
2023-01-28T08:06:02.030Z,11.20
2023-01-28T08:08:51.391Z,16.60
2023-01-28T08:12:22.729Z,14.00
2023-01-28T08:14:54.831Z,13.40
2023-01-28T08:17:24.212Z,11.60
2023-01-28T08:19:54.260Z,12.40
2023-01-28T08:22:29.907Z,11.60
2023-01-28T08:25:04.611Z,10.90
2023-01-28T08:27:43.847Z,10.10
2023-01-28T08:30:46.628Z,14.10
2023-01-28T08:33:21.039Z,12.10
2023-01-28T08:36:09.673Z,11.80
2023-01-28T08:38:41.810Z,13.50
2023-01-28T08:41:10.227Z,13.50
2023-01-28T08:43:40.237Z,16.60
2023-01-28T08:46:13.792Z,16.50
2023-01-28T08:49:16.775Z,16.80
2023-01-28T08:51:45.814Z,21.00
2023-01-28T08:54:15.952Z,22.80
2023-01-28T08:56:51.175Z,23.70
2023-01-28T08:59:21.229Z,19.50
2023-01-28T09:01:51.412Z,21.10
2023-01-28T09:04:24.538Z,23.70
2023-01-28T09:06:55.717Z,29.40
2023-01-28T09:09:35.889Z,25.30
2023-01-28T09:12:06.220Z,28.10
2023-01-28T09:14:34.391Z,20.10
2023-01-28T09:17:02.630Z,14.10
2023-01-28T09:19:30.791Z,12.60
2023-01-28T09:21:58.816Z,14.40
2023-01-28T09:24:27.119Z,10.10
2023-01-28T09:26:55.387Z,11.20
2023-01-28T09:29:23.669Z,11.90
2023-01-28T09:31:52.291Z,13.00
2023-01-28T09:34:20.556Z,11.50
2023-01-28T09:36:48.714Z,10.20
2023-01-28T09:39:16.886Z,10.70
2023-01-28T09:42:11.815Z,9.50
2023-01-28T09:45:04.128Z,11.90
2023-01-28T09:47:41.576Z,11.00
2023-01-28T09:50:18.817Z,9.80
2023-01-28T09:52:47.655Z,12.30
2023-01-28T09:55:35.851Z,15.70
2023-01-28T09:58:09.248Z,10.90
2023-01-28T10:01:02.628Z,12.00
2023-01-28T10:04:05.609Z,10.30
2023-01-28T10:06:55.166Z,13.30
2023-01-28T10:09:42.629Z,10.30
2023-01-28T10:12:35.383Z,9.70
2023-01-28T10:15:29.541Z,9.90
2023-01-28T10:18:16.049Z,10.60
2023-01-28T10:20:51.437Z,11.30
2023-01-28T10:23:30.854Z,14.10
2023-01-28T10:26:05.366Z,14.10
2023-01-28T10:28:36.018Z,12.80
2023-01-28T10:31:12.902Z,13.40
2023-01-28T10:33:41.061Z,12.90
2023-01-28T10:36:10.071Z,11.40
2023-01-28T10:38:38.815Z,8.30
2023-01-28T10:41:08.932Z,8.10
2023-01-28T10:43:41.853Z,9.20
2023-01-28T10:46:16.724Z,10.10
2023-01-28T10:48:55.591Z,12.80
2023-01-28T10:51:39.737Z,7.00
2023-01-28T10:54:19.881Z,7.50
2023-01-28T10:56:50.775Z,6.20
2023-01-28T10:59:22.861Z,7.30
2023-01-28T11:01:54.278Z,7.10
2023-01-28T11:04:32.799Z,11.50
2023-01-28T11:07:05.041Z,8.80
2023-01-28T11:09:35.708Z,7.50
2023-01-28T11:12:34.407Z,9.00
2023-01-28T11:16:14.537Z,8.40
2023-01-28T11:20:21.564Z,8.70
2023-01-28T11:23:50.454Z,6.50
2023-01-28T11:27:15.422Z,7.00
2023-01-28T11:30:08.259Z,7.70
2023-01-28T11:32:36.467Z,8.10
2023-01-28T11:35:06.246Z,7.30
2023-01-28T11:37:35.817Z,9.00
2023-01-28T11:40:21.457Z,9.80
2023-01-28T11:43:07.993Z,10.30
2023-01-28T11:45:52.737Z,8.40
2023-01-28T11:51:55.419Z,8.50
2023-01-28T11:54:39.749Z,10.60
2023-01-28T11:57:25.973Z,8.20
2023-01-28T12:00:24.991Z,7.80
2023-01-28T12:03:23.867Z,8.10
2023-01-28T12:05:57.887Z,10.10
2023-01-28T12:08:49.398Z,9.20
2023-01-28T12:14:57.734Z,7.10
2023-01-28T12:17:47.009Z,9.40
2023-01-28T12:20:48.505Z,7.80
2023-01-28T12:23:31.593Z,7.20
2023-01-28T12:26:14.335Z,9.00
2023-01-28T12:28:58.027Z,9.30
2023-01-28T12:32:18.028Z,11.40
2023-01-28T12:35:18.714Z,11.30
2023-01-28T12:38:28.274Z,10.80
2023-01-28T12:41:14.498Z,11.60
2023-01-28T12:44:09.550Z,13.70
2023-01-28T12:46:52.118Z,15.00
2023-01-28T12:49:42.391Z,12.50
2023-01-28T12:52:19.779Z,11.90
2023-01-28T12:55:26.061Z,12.00
2023-01-28T12:58:01.303Z,11.90
2023-01-28T13:00:51.572Z,9.30
2023-01-28T13:03:35.748Z,12.80
2023-01-28T13:06:11.016Z,13.60
2023-01-28T13:09:08.479Z,11.50
2023-01-28T13:11:51.212Z,10.80
2023-01-28T13:14:23.861Z,9.10
2023-01-28T13:16:54.399Z,10.20
2023-01-28T13:19:45.646Z,9.20
2023-01-28T13:22:30.928Z,10.60
2023-01-28T13:25:16.575Z,11.30
2023-01-28T13:27:59.546Z,10.30
2023-01-28T13:30:31.961Z,10.30
2023-01-28T13:33:04.295Z,10.50
2023-01-28T13:35:37.501Z,9.70
2023-01-28T13:38:34.372Z,12.20
2023-01-28T13:43:40.944Z,15.30
2023-01-28T13:46:12.538Z,16.00
2023-01-28T13:48:51.096Z,13.60
2023-01-28T13:51:24.331Z,12.90
2023-01-28T13:54:18.412Z,12.40
2023-01-28T13:57:06.004Z,14.00
2023-01-28T13:59:54.178Z,12.80
2023-01-28T14:02:53.326Z,12.20
2023-01-28T14:05:52.443Z,15.80
2023-01-28T14:08:55.599Z,13.30
2023-01-28T14:12:02.489Z,15.40
2023-01-28T14:14:45.650Z,21.00
2023-01-28T14:17:29.534Z,20.60
2023-01-28T14:20:02.217Z,37.80
2023-01-28T14:22:30.840Z,23.80
2023-01-28T14:25:02.292Z,18.90
2023-01-28T14:27:42.568Z,13.50
2023-01-28T14:30:21.849Z,24.10
2023-01-28T14:32:52.962Z,28.20
2023-01-28T14:35:39.947Z,14.40
2023-01-28T14:38:14.187Z,13.30
2023-01-28T14:40:43.841Z,17.00
2023-01-28T14:43:20.955Z,14.10
2023-01-28T14:46:05.021Z,11.40
2023-01-28T14:49:06.669Z,12.60
2023-01-28T14:51:49.753Z,12.90
2023-01-28T14:54:36.521Z,8.90
2023-01-28T14:57:23.586Z,10.70
2023-01-28T15:02:25.486Z,14.50
2023-01-28T15:05:05.725Z,15.40
2023-01-28T15:07:35.456Z,13.60
2023-01-28T15:10:08.107Z,11.70
2023-01-28T15:12:40.193Z,13.90
2023-01-28T15:15:27.708Z,13.40
2023-01-28T15:18:03.052Z,13.90
2023-01-28T15:20:32.142Z,13.90
2023-01-28T15:23:02.012Z,13.70
2023-01-28T15:25:30.608Z,16.80
2023-01-28T15:28:01.681Z,15.40
2023-01-28T15:31:01.054Z,15.10
2023-01-28T15:33:29.721Z,16.80
2023-01-28T15:35:59.245Z,17.40
2023-01-28T15:38:29.036Z,19.10
2023-01-28T15:41:02.274Z,12.90
2023-01-28T15:43:36.439Z,14.40
2023-01-28T15:46:22.727Z,14.30
2023-01-28T15:49:05.630Z,18.50
2023-01-28T15:51:34.353Z,19.10
2023-01-28T15:54:07.131Z,17.70
2023-01-28T15:56:36.411Z,24.60
2023-01-28T15:59:28.476Z,19.30
2023-01-28T16:02:24.710Z,24.00
2023-01-28T16:04:59.410Z,22.00
2023-01-28T16:07:30.439Z,22.50
2023-01-28T16:10:02.203Z,31.80
2023-01-28T16:12:30.237Z,22.10
2023-01-28T16:15:02.312Z,18.60
2023-01-28T16:17:44.604Z,18.10
2023-01-28T16:20:39.474Z,23.70
2023-01-28T16:23:22.539Z,21.80
2023-01-28T16:26:05.743Z,20.80
2023-01-28T16:28:36.280Z,16.30
2023-01-28T16:31:06.873Z,20.00
2023-01-28T16:33:36.353Z,17.10
2023-01-28T16:36:11.835Z,12.10
2023-01-28T16:38:43.149Z,15.60
2023-01-28T16:41:38.940Z,17.00
2023-01-28T16:44:07.278Z,17.10
2023-01-28T16:46:37.665Z,17.90
2023-01-28T16:49:06.302Z,18.70
2023-01-28T16:51:40.371Z,22.40
2023-01-28T16:56:51.183Z,20.60
2023-01-28T16:59:23.313Z,27.10
2023-01-28T17:01:52.338Z,20.60
2023-01-28T17:04:23.206Z,21.60
2023-01-28T17:06:53.148Z,23.30
2023-01-28T17:09:48.367Z,19.40
2023-01-28T17:12:58.419Z,19.90
2023-01-28T17:16:12.418Z,22.70
2023-01-28T17:19:27.379Z,20.10
2023-01-28T17:23:07.375Z,24.60
2023-01-28T17:26:21.063Z,20.30
2023-01-28T17:29:41.364Z,25.70
2023-01-28T17:33:12.644Z,22.00
2023-01-28T17:36:40.348Z,24.60
2023-01-28T17:39:24.588Z,19.30
2023-01-28T17:42:17.404Z,20.10
2023-01-28T17:45:37.397Z,20.50
2023-01-28T17:48:41.355Z,20.90
2023-01-28T17:51:56.365Z,17.60
2023-01-28T17:55:14.735Z,24.90
2023-01-28T17:58:35.370Z,18.40
2023-01-28T18:02:03.347Z,17.50
2023-01-28T18:05:16.752Z,16.30
2023-01-28T18:08:17.316Z,14.90
2023-01-28T18:11:23.430Z,15.40
2023-01-28T18:14:56.315Z,14.60
2023-01-28T18:18:04.028Z,15.10
2023-01-28T18:21:52.108Z,16.20
2023-01-28T18:25:37.395Z,15.50
2023-01-28T18:29:01.427Z,14.50
2023-01-28T18:32:39.672Z,15.40
2023-01-28T18:35:49.346Z,19.10
2023-01-28T18:39:07.420Z,16.80
2023-01-28T18:42:44.329Z,16.40
2023-01-28T18:45:56.373Z,18.30
2023-01-28T18:49:58.327Z,18.20
2023-01-28T18:53:15.985Z,18.40
2023-01-28T18:56:31.296Z,23.50
2023-01-28T18:59:55.111Z,20.30
2023-01-28T19:03:25.418Z,16.80
2023-01-28T19:07:03.895Z,21.40
2023-01-28T19:10:31.373Z,16.00
2023-01-28T19:18:09.446Z,11.70
2023-01-28T19:21:44.402Z,14.00
2023-01-28T19:25:30.383Z,13.70
2023-01-28T19:28:59.385Z,13.20
2023-01-28T19:32:28.420Z,12.30
2023-01-28T19:35:51.361Z,14.10
2023-01-28T19:39:05.393Z,12.70
2023-01-28T19:42:45.414Z,16.10
2023-01-28T19:46:43.355Z,17.10
2023-01-28T19:49:55.384Z,17.70
2023-01-28T19:52:53.368Z,17.00
2023-01-28T19:56:10.730Z,19.90
2023-01-28T19:59:56.058Z,17.70
2023-01-28T20:03:27.342Z,17.30
2023-01-28T20:07:19.299Z,18.20
2023-01-28T20:10:45.352Z,19.50
2023-01-28T20:14:26.342Z,21.10
2023-01-28T20:18:10.351Z,21.10
2023-01-28T20:21:34.301Z,16.20
2023-01-28T20:24:54.405Z,18.20
2023-01-28T20:28:26.398Z,15.80
2023-01-28T20:35:53.357Z,16.80
2023-01-28T20:39:40.657Z,16.10
2023-01-28T20:42:56.311Z,16.40
2023-01-28T20:46:17.524Z,18.50
2023-01-28T20:50:11.349Z,18.00
2023-01-28T20:53:26.399Z,23.00
2023-01-28T20:57:15.628Z,21.60
2023-01-28T20:59:54.771Z,17.90
2023-01-28T21:02:58.785Z,20.00
2023-01-28T21:05:33.809Z,17.00
2023-01-28T21:08:03.994Z,17.50
2023-01-28T21:10:37.274Z,17.90
2023-01-28T21:13:46.160Z,18.20
2023-01-28T21:16:55.376Z,17.80
2023-01-28T21:19:27.853Z,16.50
2023-01-28T21:22:20.757Z,17.70
2023-01-28T21:24:51.344Z,16.10
2023-01-28T21:27:41.349Z,19.60
2023-01-28T21:30:12.122Z,17.30
2023-01-28T21:32:42.622Z,19.70
2023-01-28T21:39:26.244Z,18.10
2023-01-28T21:46:22.461Z,17.10
2023-01-28T21:49:47.409Z,14.60
2023-01-28T21:53:33.380Z,16.10
2023-01-28T22:01:04.465Z,16.40
2023-01-28T22:04:17.367Z,16.70
2023-01-28T22:07:46.324Z,17.60
2023-01-28T22:11:43.361Z,16.10
2023-01-28T22:14:57.360Z,16.60
2023-01-28T22:18:42.374Z,16.70
2023-01-28T22:22:26.329Z,18.70
2023-01-28T22:25:48.322Z,17.10
2023-01-28T22:33:04.352Z,15.10
2023-01-28T22:36:37.341Z,19.20
2023-01-28T22:40:15.777Z,22.00
2023-01-28T22:44:06.292Z,21.90
2023-01-28T22:47:52.370Z,19.00
2023-01-28T22:54:59.328Z,21.70
2023-01-28T22:58:31.640Z,16.70
2023-01-28T23:05:42.648Z,16.40
2023-01-28T23:12:47.351Z,14.00
2023-01-28T23:16:24.281Z,11.60
2023-01-28T23:20:07.344Z,13.50
2023-01-28T23:23:51.355Z,13.00
2023-01-28T23:27:23.438Z,12.60
2023-01-28T23:31:06.465Z,15.00
2023-01-28T23:38:38.316Z,16.00
2023-01-28T23:41:55.383Z,15.80
2023-01-28T23:45:21.316Z,17.90
2023-01-28T23:49:12.298Z,15.30
2023-01-28T23:52:39.450Z,16.10
2023-01-28T23:56:18.281Z,16.40
